Time;durP1;ratioP1;P1;durP2;ratioP2;P2;SDS_P1;SDS_P2;PMS_P1;PMS_P2;Temp;Humidity;BMP_temperature;BMP_pressure;BME280_temperature;BME280_humidity;BME280_pressure;Samples;Min_cycle;Max_cycle;Signal;HPM_P1;HPM_P2
2022/06/13 00:02:08;;;;;;;;;;;;;;;23.83;nan;99689.44;4980833;28;20016;-72
2022/06/13 00:04:35;;;;;;;;;;;;;;;23.77;nan;99700.31;4984131;28;20004;-72
2022/06/13 00:07:01;;;;;;;;;;;;;;;23.68;nan;99707.84;4980879;28;19949;-72
2022/06/13 00:09:27;;;;;;;;;;;;;;;23.60;nan;99713.53;4983491;28;19932;-73
2022/06/13 00:11:52;;;;;;;;;;;;;;;23.49;nan;99703.50;4981778;28;19918;-72
2022/06/13 00:14:17;;;;;;;;;;;;;;;23.44;nan;99701.47;4983627;28;19921;-72
2022/06/13 00:16:43;;;;;;;;;;;;;;;23.42;nan;99698.16;4992179;28;19972;-74
2022/06/13 00:19:08;;;;;;;;;;;;;;;23.38;nan;99709.59;4991725;28;19917;-74
2022/06/13 00:21:35;;;;;;;;;;;;;;;23.32;nan;99714.00;4991990;28;20323;-72
2022/06/13 00:24:03;;;;;;;;;;;;;;;23.26;nan;99714.88;4991639;28;19914;-73
2022/06/13 00:26:30;;;;;;;;;;;;;;;23.27;nan;99711.94;4991506;28;19918;-72
2022/06/13 00:28:56;;;;;;;;;;;;;;;23.27;nan;99706.56;4991854;28;20021;-72
2022/06/13 00:31:21;;;;;;;;;;;;;;;23.28;nan;99708.22;4991275;28;20004;-72
2022/06/13 00:33:47;;;;;;;;;;;;;;;23.28;nan;99707.41;4991464;28;19917;-72
2022/06/13 00:36:13;;;;;;;;;;;;;;;23.11;nan;99712.50;4991298;28;19921;-72
2022/06/13 00:38:38;;;;;;;;;;;;;;;22.90;nan;99710.22;4991636;28;20048;-72
2022/06/13 00:41:08;;;;;;;;;;;;;;;22.94;nan;99711.41;4991147;28;19921;-72
2022/06/13 00:43:34;;;;;;;;;;;;;;;23.01;nan;99705.97;4987967;28;19913;-74
2022/06/13 00:45:59;;;;;;;;;;;;;;;22.91;nan;99716.41;4991373;28;20389;-73
2022/06/13 00:48:27;;;;;;;;;;;;;;;22.72;nan;99713.66;4990885;28;19921;-73
2022/06/13 00:50:55;;;;;;;;;;;;;;;22.68;nan;99703.53;4991045;28;19972;-74
2022/06/13 00:53:31;;;;;;;;;;;;;;;22.69;nan;99699.75;4991072;28;19928;-74
2022/06/13 00:56:05;;;;;;;;;;;;;;;22.44;nan;99705.91;4989792;28;19928;-73
2022/06/13 00:58:35;;;;;;;;;;;;;;;22.53;nan;99702.97;4988825;28;20378;-73
2022/06/13 01:01:00;;;;;;;;;;;;;;;22.62;nan;99697.13;4988715;28;19917;-74
2022/06/13 01:03:26;;;;;;;;;;;;;;;22.66;nan;99692.16;4987208;28;19931;-72
2022/06/13 01:05:53;;;;;;;;;;;;;;;22.67;nan;99683.03;4990832;28;20250;-74
2022/06/13 01:08:20;;;;;;;;;;;;;;;22.69;nan;99680.94;4989346;28;19921;-74
2022/06/13 01:14:00;;;;;;;;;;;;;;;22.83;nan;99671.75;4989832;28;19961;-74
2022/06/13 01:16:33;;;;;;;;;;;;;;;22.92;nan;99665.06;4990444;28;19926;-72
2022/06/13 01:19:16;;;;;;;;;;;;;;;22.96;nan;99660.06;4990756;28;19918;-73
2022/06/13 01:22:18;;;;;;;;;;;;;;;23.00;nan;99662.09;4988528;28;19921;-73
2022/06/13 01:24:43;;;;;;;;;;;;;;;23.02;nan;99654.63;4969534;28;19964;-73
2022/06/13 01:27:14;;;;;;;;;;;;;;;23.07;nan;99651.28;4986246;28;19917;-73
2022/06/13 01:29:40;;;;;;;;;;;;;;;23.07;nan;99656.66;4990996;28;20428;-73
2022/06/13 01:32:11;;;;;;;;;;;;;;;23.07;nan;99652.09;4990979;28;19925;-73
2022/06/13 01:34:49;;;;;;;;;;;;;;;22.79;nan;99640.97;4987640;28;20378;-73
2022/06/13 01:37:23;;;;;;;;;;;;;;;22.85;nan;99632.81;4989280;28;19917;-73
2022/06/13 01:40:04;;;;;;;;;;;;;;;22.85;nan;99634.72;4990517;28;19924;-72
2022/06/13 01:42:30;;;;;;;;;;;;;;;22.83;nan;99634.09;4989905;28;19922;-73
2022/06/13 01:44:55;;;;;;;;;;;;;;;22.82;nan;99627.06;4990692;28;19921;-73
2022/06/13 01:47:37;;;;;;;;;;;;;;;22.81;nan;99620.03;4990676;28;20263;-73
2022/06/13 01:50:22;;;;;;;;;;;;;;;22.81;nan;99617.34;4990080;28;20008;-73
2022/06/13 01:52:54;;;;;;;;;;;;;;;22.81;nan;99620.03;4988519;28;19917;-73
2022/06/13 01:55:37;;;;;;;;;;;;;;;22.73;nan;99614.94;4989938;28;19968;-73
2022/06/13 01:58:02;;;;;;;;;;;;;;;22.65;nan;99620.56;4990357;28;20381;-73
2022/06/13 02:00:32;;;;;;;;;;;;;;;22.56;nan;99621.88;4990332;28;19918;-72
2022/06/13 02:03:00;;;;;;;;;;;;;;;22.40;nan;99624.03;4990404;28;19997;-73
2022/06/13 02:05:54;;;;;;;;;;;;;;;22.18;nan;99625.44;4990054;28;20017;-73
2022/06/13 02:08:31;;;;;;;;;;;;;;;22.13;nan;99627.94;4984952;28;19971;-72
2022/06/13 02:10:59;;;;;;;;;;;;;;;22.08;nan;99622.41;4989783;28;20004;-73
2022/06/13 02:13:36;;;;;;;;;;;;;;;22.08;nan;99624.25;4989885;28;19960;-72
2022/06/13 02:16:06;;;;;;;;;;;;;;;22.00;nan;99622.63;4990068;28;19961;-73
2022/06/13 02:18:32;;;;;;;;;;;;;;;22.02;nan;99623.25;4993795;28;19922;-73
2022/06/13 02:21:02;;;;;;;;;;;;;;;22.05;nan;99609.38;4993831;28;19917;-73
2022/06/13 02:23:30;;;;;;;;;;;;;;;22.09;nan;99609.78;4993827;28;20024;-73
2022/06/13 02:26:00;;;;;;;;;;;;;;;22.10;nan;99612.25;4993743;28;19972;-73
2022/06/13 02:28:28;;;;;;;;;;;;;;;22.16;nan;99606.00;4993965;28;19921;-72
2022/06/13 02:30:57;;;;;;;;;;;;;;;22.16;nan;99615.94;4994032;28;19914;-72
2022/06/13 02:33:35;;;;;;;;;;;;;;;21.96;nan;99621.44;4994112;28;20394;-73
2022/06/13 02:36:20;;;;;;;;;;;;;;;21.77;nan;99617.75;4993789;28;19913;-73
2022/06/13 02:38:46;;;;;;;;;;;;;;;21.85;nan;99608.66;4991763;28;20043;-73
2022/06/13 02:41:13;;;;;;;;;;;;;;;21.87;nan;99622.66;4993108;28;19918;-73
2022/06/13 02:43:45;;;;;;;;;;;;;;;21.79;nan;99636.38;4993849;28;19918;-74
2022/06/13 02:46:16;;;;;;;;;;;;;;;21.75;nan;99645.88;4993551;28;19961;-73
2022/06/13 02:48:46;;;;;;;;;;;;;;;21.75;nan;99645.88;4993821;28;19918;-73
2022/06/13 02:51:17;;;;;;;;;;;;;;;21.65;nan;99630.22;4993288;28;19960;-73
2022/06/13 02:53:51;;;;;;;;;;;;;;;21.62;nan;99642.19;4993641;28;20013;-72
2022/06/13 02:56:28;;;;;;;;;;;;;;;21.43;nan;99632.34;4992915;28;19928;-73
2022/06/13 02:58:53;;;;;;;;;;;;;;;21.42;nan;99619.13;4993511;28;20370;-74
2022/06/13 03:01:26;;;;;;;;;;;;;;;21.43;nan;99632.34;4993130;28;19964;-73
2022/06/13 03:04:02;;;;;;;;;;;;;;;21.46;nan;99642.66;4993412;28;19918;-73
2022/06/13 03:06:53;;;;;;;;;;;;;;;21.23;nan;99642.31;4993281;28;20084;-73
2022/06/13 03:09:24;;;;;;;;;;;;;;;21.01;nan;99648.91;4984311;28;19940;-74
2022/06/13 03:11:52;;;;;;;;;;;;;;;20.95;nan;99644.38;4993019;28;19917;-73
2022/06/13 03:14:23;;;;;;;;;;;;;;;21.01;nan;99646.22;4992898;28;19924;-73
2022/06/13 03:16:51;;;;;;;;;;;;;;;20.93;nan;99635.69;4993169;28;20475;-73
2022/06/13 03:19:22;;;;;;;;;;;;;;;21.03;nan;99638.81;4992862;28;19947;-73
2022/06/13 03:21:49;;;;;;;;;;;;;;;21.05;nan;99650.13;4992756;28;19918;-73
2022/06/13 03:24:24;;;;;;;;;;;;;;;21.08;nan;99655.94;4992488;28;19918;-73
2022/06/13 03:26:55;;;;;;;;;;;;;;;21.09;nan;99659.41;4992484;28;19981;-74
2022/06/13 03:29:30;;;;;;;;;;;;;;;21.04;nan;99669.94;4992845;28;19929;-73
2022/06/13 03:31:58;;;;;;;;;;;;;;;21.03;nan;99673.69;4992962;28;19921;-73
2022/06/13 03:34:28;;;;;;;;;;;;;;;21.03;nan;99679.03;4992707;28;19922;-73
2022/06/13 03:37:06;;;;;;;;;;;;;;;20.99;nan;99673.25;4993078;28;20438;-73
2022/06/13 03:39:34;;;;;;;;;;;;;;;20.90;nan;99673.69;4992794;28;20610;-73
2022/06/13 03:42:35;;;;;;;;;;;;;;;20.87;nan;99682.13;4992418;28;19929;-74
2022/06/13 03:45:16;;;;;;;;;;;;;;;20.88;nan;99681.09;4970972;28;20358;-73
2022/06/13 03:47:47;;;;;;;;;;;;;;;20.90;nan;99681.72;4971191;28;20061;-73
2022/06/13 03:50:24;;;;;;;;;;;;;;;20.89;nan;99682.75;4970771;28;19922;-73
2022/06/13 03:52:53;;;;;;;;;;;;;;;20.88;nan;99675.72;4970921;28;20065;-73
2022/06/13 03:55:23;;;;;;;;;;;;;;;20.87;nan;99679.44;4970385;28;20304;-73
2022/06/13 03:57:52;;;;;;;;;;;;;;;20.78;nan;99671.63;4970947;28;19922;-74
2022/06/13 04:00:21;;;;;;;;;;;;;;;20.78;nan;99671.63;4970284;28;19918;-73
2022/06/13 04:02:46;;;;;;;;;;;;;;;20.77;nan;99686.06;4970515;28;19972;-73
2022/06/13 04:05:18;;;;;;;;;;;;;;;20.75;nan;99698.81;4970210;28;19930;-73
2022/06/13 04:07:44;;;;;;;;;;;;;;;20.77;nan;99694.09;4965129;28;19917;-74
2022/06/13 04:10:12;;;;;;;;;;;;;;;20.77;nan;99685.22;4969702;28;19925;-73
2022/06/13 04:12:50;;;;;;;;;;;;;;;20.69;nan;99696.97;4969879;28;20374;-73
2022/06/13 04:15:15;;;;;;;;;;;;;;;20.63;nan;99680.88;4969814;28;19918;-73
2022/06/13 04:17:56;;;;;;;;;;;;;;;20.62;nan;99677.34;4969656;28;20389;-73
2022/06/13 04:20:41;;;;;;;;;;;;;;;20.65;nan;99682.31;4991097;28;19918;-72
2022/06/13 04:23:25;;;;;;;;;;;;;;;20.66;nan;99689.34;4991058;28;19933;-74
2022/06/13 04:26:12;;;;;;;;;;;;;;;20.68;nan;99689.94;4990323;28;19933;-72
2022/06/13 04:28:45;;;;;;;;;;;;;;;20.67;nan;99680.28;4987035;28;20290;-72
2022/06/13 04:31:11;;;;;;;;;;;;;;;20.66;nan;99678.63;4991495;28;20456;-73
2022/06/13 04:33:42;;;;;;;;;;;;;;;20.69;nan;99670.16;4991832;28;19922;-72
2022/06/13 04:36:10;;;;;;;;;;;;;;;20.76;nan;99673.66;4988335;28;19917;-73
2022/06/13 04:38:36;;;;;;;;;;;;;;;20.83;nan;99679.88;4991358;28;19918;-73
2022/06/13 04:41:03;;;;;;;;;;;;;;;20.96;nan;99683.59;4991246;28;19932;-73
2022/06/13 04:43:33;;;;;;;;;;;;;;;21.05;nan;99677.78;4991561;28;19976;-73
2022/06/13 04:46:05;;;;;;;;;;;;;;;21.18;nan;99677.00;4990308;28;20448;-73
2022/06/13 04:48:31;;;;;;;;;;;;;;;21.30;nan;99669.97;4991428;28;20394;-73
2022/06/13 04:51:00;;;;;;;;;;;;;;;21.39;nan;99684.78;4991321;28;19921;-73
2022/06/13 04:53:31;;;;;;;;;;;;;;;21.46;nan;99674.88;4991062;28;19922;-72
2022/06/13 04:55:59;;;;;;;;;;;;;;;21.46;nan;99680.25;4991456;28;19921;-73
2022/06/13 04:58:24;;;;;;;;;;;;;;;21.35;nan;99677.38;4990735;28;19918;-73
2022/06/13 05:00:54;;;;;;;;;;;;;;;21.37;nan;99681.50;4990879;28;19993;-73
2022/06/13 05:03:21;;;;;;;;;;;;;;;21.39;nan;99687.47;4991020;28;19944;-72
2022/06/13 05:05:50;;;;;;;;;;;;;;;21.32;nan;99692.06;4991354;28;19929;-72
2022/06/13 05:08:22;;;;;;;;;;;;;;;21.25;nan;99691.22;4990683;28;20008;-72
2022/06/13 05:10:49;;;;;;;;;;;;;;;21.31;nan;99682.34;4991238;28;19917;-72
2022/06/13 05:13:15;;;;;;;;;;;;;;;21.31;nan;99695.78;4990738;28;19913;-72
2022/06/13 05:15:41;;;;;;;;;;;;;;;21.33;nan;99704.41;4991066;28;20361;-71
2022/06/13 05:18:07;;;;;;;;;;;;;;;21.41;nan;99698.84;4990817;28;19928;-71
2022/06/13 05:20:52;;;;;;;;;;;;;;;21.46;nan;99696.34;4990030;28;20370;-72
2022/06/13 05:23:26;;;;;;;;;;;;;;;21.57;nan;99698.38;4988422;28;19924;-72
2022/06/13 05:25:53;;;;;;;;;;;;;;;21.70;nan;99696.72;4990721;28;20428;-73
2022/06/13 05:28:20;;;;;;;;;;;;;;;21.75;nan;99686.16;4989164;28;19982;-74
2022/06/13 05:30:47;;;;;;;;;;;;;;;21.81;nan;99682.63;4989430;28;20452;-82
2022/06/13 05:33:16;;;;;;;;;;;;;;;21.89;nan;99680.53;4989072;28;20382;-82
2022/06/13 05:35:45;;;;;;;;;;;;;;;22.03;nan;99686.72;4990461;28;20004;-81
2022/06/13 05:38:18;;;;;;;;;;;;;;;22.11;nan;99699.91;4989948;28;20301;-84
2022/06/13 05:40:44;;;;;;;;;;;;;;;22.19;nan;99699.66;4988475;28;19923;-84
2022/06/13 05:43:10;;;;;;;;;;;;;;;22.14;nan;99704.03;4990995;28;19925;-87
2022/06/13 05:45:37;;;;;;;;;;;;;;;22.18;nan;99702.56;4988172;28;20725;-85
2022/06/13 05:48:03;;;;;;;;;;;;;;;22.20;nan;99697.81;4988400;28;20400;-85
2022/06/13 05:50:29;;;;;;;;;;;;;;;22.27;nan;99704.78;4988802;28;19925;-85
2022/06/13 05:52:55;;;;;;;;;;;;;;;22.42;nan;99699.13;4988083;28;20434;-80
2022/06/13 05:55:21;;;;;;;;;;;;;;;22.53;nan;99686.84;4990368;28;20013;-80
2022/06/13 05:57:47;;;;;;;;;;;;;;;22.66;nan;99697.53;4989687;28;19944;-81
2022/06/13 06:00:18;;;;;;;;;;;;;;;22.74;nan;99694.59;4990880;28;19918;-85
2022/06/13 06:02:45;;;;;;;;;;;;;;;22.86;nan;99690.16;4985263;28;19921;-82
2022/06/13 06:05:10;;;;;;;;;;;;;;;22.96;nan;99693.19;4981816;28;19918;-83
2022/06/13 06:07:36;;;;;;;;;;;;;;;23.03;nan;99688.56;4982956;28;20072;-85
2022/06/13 06:10:02;;;;;;;;;;;;;;;23.10;nan;99700.09;4989532;28;19917;-82
2022/06/13 06:12:28;;;;;;;;;;;;;;;23.09;nan;99695.75;4983481;28;20283;-88
2022/06/13 06:14:53;;;;;;;;;;;;;;;23.13;nan;99707.75;4979278;28;19941;-85
2022/06/13 06:17:19;;;;;;;;;;;;;;;23.19;nan;99704.19;4981727;28;20320;-86
2022/06/13 06:19:45;;;;;;;;;;;;;;;23.17;nan;99702.75;4992740;28;19917;-91
2022/06/13 06:22:10;;;;;;;;;;;;;;;23.25;nan;99694.38;4991121;28;20321;-88
2022/06/13 06:24:35;;;;;;;;;;;;;;;23.34;nan;99697.59;4989476;28;19925;-74
2022/06/13 06:27:01;;;;;;;;;;;;;;;23.40;nan;99702.09;4986245;28;19921;-73
2022/06/13 06:29:27;;;;;;;;;;;;;;;23.45;nan;99696.88;4987925;28;19922;-74
2022/06/13 06:31:52;;;;;;;;;;;;;;;23.47;nan;99700.22;4988394;28;19924;-74
2022/06/13 06:34:18;;;;;;;;;;;;;;;23.59;nan;99693.88;4990091;28;19932;-73
2022/06/13 06:36:43;;;;;;;;;;;;;;;23.70;nan;99694.97;4989656;28;19918;-73
2022/06/13 06:39:08;;;;;;;;;;;;;;;23.80;nan;99689.88;4989434;28;19918;-74
2022/06/13 06:41:34;;;;;;;;;;;;;;;23.91;nan;99701.81;4990139;28;20293;-74
2022/06/13 06:43:59;;;;;;;;;;;;;;;23.97;nan;99692.81;4990187;28;19964;-73
2022/06/13 06:46:25;;;;;;;;;;;;;;;24.07;nan;99693.94;4988452;28;19972;-75
2022/06/13 06:48:51;;;;;;;;;;;;;;;24.17;nan;99695.25;4989199;28;19997;-76
2022/06/13 06:51:17;;;;;;;;;;;;;;;24.26;nan;99693.94;4988948;28;19949;-76
2022/06/13 07:01:54;;;;;;;;;;;;;;;24.34;nan;99699.00;4989645;28;19964;-72
2022/06/13 07:04:20;;;;;;;;;;;;;;;24.39;nan;99699.13;4992133;28;19949;-73
2022/06/13 07:06:45;;;;;;;;;;;;;;;24.45;nan;99698.22;4992398;28;20012;-73
2022/06/13 07:09:10;;;;;;;;;;;;;;;24.54;nan;99691.44;4991834;28;19921;-74
2022/06/13 07:11:54;;;;;;;;;;;;;;;24.57;nan;99684.75;4992692;28;19937;-74
2022/06/13 07:14:21;;;;;;;;;;;;;;;24.55;nan;99679.63;4990877;28;20345;-75
2022/06/13 07:16:46;;;;;;;;;;;;;;;24.58;nan;99681.84;4992733;28;19980;-75
2022/06/13 07:19:12;;;;;;;;;;;;;;;24.59;nan;99683.47;4991891;28;19918;-74
2022/06/13 07:21:37;;;;;;;;;;;;;;;24.53;nan;99689.81;4992297;28;19956;-74
2022/06/13 07:24:02;;;;;;;;;;;;;;;24.53;nan;99692.50;4990608;28;19964;-75
2022/06/13 07:26:28;;;;;;;;;;;;;;;24.61;nan;99686.78;4992199;28;19926;-75
2022/06/13 07:28:54;;;;;;;;;;;;;;;24.72;nan;99682.47;4992444;28;19924;-75
2022/06/13 07:31:22;;;;;;;;;;;;;;;24.79;nan;99678.63;4992055;28;20018;-75
2022/06/13 07:33:48;;;;;;;;;;;;;;;24.88;nan;99681.78;4992309;28;20282;-75
2022/06/13 07:36:13;;;;;;;;;;;;;;;24.91;nan;99684.06;4991494;28;19924;-75
2022/06/13 07:38:38;;;;;;;;;;;;;;;24.95;nan;99689.81;4991800;28;19917;-75
2022/06/13 07:41:04;;;;;;;;;;;;;;;24.95;nan;99687.09;4991681;28;19943;-74
2022/06/13 07:43:37;;;;;;;;;;;;;;;24.95;nan;99682.53;4992050;28;20418;-74
2022/06/13 07:46:04;;;;;;;;;;;;;;;24.99;nan;99678.31;4991082;28;20008;-75
2022/06/13 07:48:31;;;;;;;;;;;;;;;25.02;nan;99677.84;4992079;28;19918;-75
2022/06/13 07:50:57;;;;;;;;;;;;;;;25.09;nan;99672.34;4991572;28;19921;-75
2022/06/13 07:53:22;;;;;;;;;;;;;;;25.13;nan;99671.63;4991098;28;19917;-75
2022/06/13 07:55:48;;;;;;;;;;;;;;;25.19;nan;99677.97;4991875;28;19917;-73
2022/06/13 07:58:19;;;;;;;;;;;;;;;25.32;nan;99676.94;4990088;28;19964;-75
2022/06/13 08:00:46;;;;;;;;;;;;;;;25.49;nan;99670.56;4991815;28;19918;-74
2022/06/13 08:03:16;;;;;;;;;;;;;;;25.35;nan;99671.03;4991680;28;20422;-75
2022/06/13 08:05:41;;;;;;;;;;;;;;;25.53;nan;99671.72;4991511;28;19918;-75
2022/06/13 08:08:06;;;;;;;;;;;;;;;25.60;nan;99674.34;4990947;28;20293;-74
2022/06/13 08:10:32;;;;;;;;;;;;;;;25.73;nan;99675.97;4991565;28;19918;-74
2022/06/13 08:12:57;;;;;;;;;;;;;;;25.85;nan;99676.78;4991820;28;20694;-74
2022/06/13 08:15:24;;;;;;;;;;;;;;;25.82;nan;99663.72;4990598;28;20440;-74
2022/06/13 08:17:49;;;;;;;;;;;;;;;25.97;nan;99664.88;4991559;28;19918;-74
2022/06/13 08:20:14;;;;;;;;;;;;;;;26.06;nan;99673.41;4991641;28;19917;-76
2022/06/13 08:22:44;;;;;;;;;;;;;;;26.10;nan;99666.44;4990908;28;19918;-75
2022/06/13 08:25:30;;;;;;;;;;;;;;;26.18;nan;99660.66;4990898;28;19917;-75
2022/06/13 08:27:56;;;;;;;;;;;;;;;26.19;nan;99665.00;4991100;28;19924;-75
2022/06/13 08:30:22;;;;;;;;;;;;;;;26.21;nan;99654.78;4991174;28;19922;-75
2022/06/13 08:32:48;;;;;;;;;;;;;;;26.32;nan;99663.94;4990107;28;19948;-75
2022/06/13 08:35:14;;;;;;;;;;;;;;;26.39;nan;99662.69;4991148;28;19961;-75
2022/06/13 08:37:39;;;;;;;;;;;;;;;26.45;nan;99661.72;4990600;28;19921;-75
2022/06/13 08:40:05;;;;;;;;;;;;;;;26.53;nan;99662.41;4990825;28;19918;-74
2022/06/13 08:42:30;;;;;;;;;;;;;;;26.55;nan;99654.88;4990941;28;20332;-75
2022/06/13 08:45:04;;;;;;;;;;;;;;;26.61;nan;99649.31;4991372;28;19922;-75
2022/06/13 08:47:46;;;;;;;;;;;;;;;26.71;nan;99654.06;4991405;28;20667;-74
2022/06/13 08:50:28;;;;;;;;;;;;;;;26.76;nan;99646.00;4995154;28;19957;-75
2022/06/13 08:53:10;;;;;;;;;;;;;;;26.78;nan;99649.31;4980191;28;20289;-74
2022/06/13 08:55:47;;;;;;;;;;;;;;;26.88;nan;99654.91;4990645;28;19929;-74
2022/06/13 08:58:19;;;;;;;;;;;;;;;26.98;nan;99649.66;4987855;28;20322;-74
2022/06/13 09:00:50;;;;;;;;;;;;;;;27.04;nan;99651.38;4990617;28;19925;-74
2022/06/13 09:03:18;;;;;;;;;;;;;;;27.07;nan;99648.19;4989309;28;19924;-74
2022/06/13 09:05:49;;;;;;;;;;;;;;;27.09;nan;99646.06;4990744;28;20374;-74
2022/06/13 09:08:17;;;;;;;;;;;;;;;27.09;nan;99656.88;4987299;28;20306;-80
2022/06/13 09:10:46;;;;;;;;;;;;;;;27.01;nan;99649.16;4979708;28;19925;-83
2022/06/13 09:13:25;;;;;;;;;;;;;;;26.91;nan;99646.31;4977939;28;19918;-80
2022/06/13 09:16:04;;;;;;;;;;;;;;;26.94;nan;99642.28;4979612;28;19918;-81
2022/06/13 09:18:36;;;;;;;;;;;;;;;27.00;nan;99642.09;4980039;28;20037;-80
2022/06/13 09:21:05;;;;;;;;;;;;;;;26.96;nan;99640.97;4978391;28;19918;-78
2022/06/13 09:23:46;;;;;;;;;;;;;;;26.98;nan;99633.41;4982448;28;19925;-79
2022/06/13 09:26:17;;;;;;;;;;;;;;;27.01;nan;99638.34;4977512;28;19918;-78
2022/06/13 09:28:48;;;;;;;;;;;;;;;27.03;nan;99638.91;4979117;28;19945;-78
2022/06/13 09:31:18;;;;;;;;;;;;;;;27.07;nan;99633.81;4978040;28;19918;-78
2022/06/13 09:33:47;;;;;;;;;;;;;;;27.11;nan;99646.59;4979112;28;20290;-79
2022/06/13 09:36:21;;;;;;;;;;;;;;;27.18;nan;99647.25;4977800;28;19940;-79
2022/06/13 09:38:50;;;;;;;;;;;;;;;27.26;nan;99652.28;4978299;28;20024;-79
2022/06/13 09:41:35;;;;;;;;;;;;;;;27.33;nan;99648.56;4978058;28;20385;-80
2022/06/13 09:44:20;;;;;;;;;;;;;;;27.35;nan;99639.09;4980440;28;20297;-80
2022/06/13 09:46:49;;;;;;;;;;;;;;;27.33;nan;99640.44;4979897;28;19942;-80
2022/06/13 09:49:14;;;;;;;;;;;;;;;27.38;nan;99635.09;4978007;28;19961;-80
2022/06/13 09:51:46;;;;;;;;;;;;;;;27.50;nan;99635.78;4978900;28;19952;-79
2022/06/13 09:54:21;;;;;;;;;;;;;;;27.59;nan;99628.88;4980181;28;20370;-81
2022/06/13 09:57:05;;;;;;;;;;;;;;;27.65;nan;99623.28;4978762;28;20104;-80
2022/06/13 09:59:37;;;;;;;;;;;;;;;27.74;nan;99625.56;4978735;28;19918;-80
2022/06/13 10:02:12;;;;;;;;;;;;;;;27.80;nan;99622.66;4981874;28;19921;-80
2022/06/13 10:04:56;;;;;;;;;;;;;;;27.90;nan;99625.47;4632352;28;10000048;-80
2022/06/13 10:07:23;;;;;;;;;;;;;;;27.91;nan;99620.88;4985731;28;20779;-81
2022/06/13 10:09:54;;;;;;;;;;;;;;;27.90;nan;99611.91;4975235;28;20366;-81
2022/06/13 10:12:40;;;;;;;;;;;;;;;27.93;nan;99605.97;4975811;28;19924;-81
2022/06/13 10:15:08;;;;;;;;;;;;;;;27.97;nan;99609.84;4635666;28;10000352;-80
2022/06/13 10:17:50;;;;;;;;;;;;;;;27.99;nan;99604.13;4977536;28;19917;-78
2022/06/13 10:20:19;;;;;;;;;;;;;;;27.99;nan;99593.28;4982836;28;19917;-78
2022/06/13 10:22:55;;;;;;;;;;;;;;;27.99;nan;99596.00;4979341;28;19924;-79
2022/06/13 10:25:47;;;;;;;;;;;;;;;28.02;nan;99590.91;4979433;28;20432;-79
2022/06/13 10:28:28;;;;;;;;;;;;;;;28.13;nan;99577.41;4981050;28;20052;-81
2022/06/13 10:31:20;;;;;;;;;;;;;;;28.24;nan;99581.91;4986491;28;20358;-77
2022/06/13 10:33:55;;;;;;;;;;;;;;;28.28;nan;99577.59;4992286;28;19948;-79
2022/06/13 10:36:21;;;;;;;;;;;;;;;28.32;nan;99573.31;4980352;28;19972;-77
2022/06/13 10:39:17;;;;;;;;;;;;;;;28.38;nan;99572.28;4982319;28;19922;-78
2022/06/13 10:41:45;;;;;;;;;;;;;;;28.39;nan;99561.13;4989254;28;19972;-78
2022/06/13 10:44:12;;;;;;;;;;;;;;;28.44;nan;99565.81;4993426;28;19982;-78
2022/06/13 10:46:42;;;;;;;;;;;;;;;28.48;nan;99562.31;4985857;28;20422;-78
2022/06/13 10:49:13;;;;;;;;;;;;;;;28.56;nan;99557.50;4989977;28;19914;-79
2022/06/13 10:51:40;;;;;;;;;;;;;;;28.66;nan;99552.13;4988827;28;19961;-79
2022/06/13 10:54:24;;;;;;;;;;;;;;;28.75;nan;99551.41;4984167;28;19921;-79
2022/06/13 10:57:05;;;;;;;;;;;;;;;28.74;nan;99544.34;4987523;28;19965;-78
2022/06/13 10:59:32;;;;;;;;;;;;;;;28.89;nan;99541.72;4984419;28;20389;-79
2022/06/13 11:02:02;;;;;;;;;;;;;;;28.79;nan;99547.09;4993470;28;19918;-79
2022/06/13 11:04:32;;;;;;;;;;;;;;;28.80;nan;99543.31;4992735;28;19972;-79
2022/06/13 11:07:00;;;;;;;;;;;;;;;28.80;nan;99547.94;4990784;28;19926;-79
2022/06/13 11:09:37;;;;;;;;;;;;;;;28.82;nan;99541.13;4983250;28;20799;-79
2022/06/13 11:12:04;;;;;;;;;;;;;;;28.88;nan;99531.94;4642285;22;10002016;-78
2022/06/13 11:22:37;;;;;;;;;;;;;;;28.97;nan;99534.16;4598136;28;9999972;-79
2022/06/13 11:23:00;;;;;;;;;;;;;;;29.30;nan;99525.63;4946183;29;19927;-78
2022/06/13 11:25:27;;;;;;;;;;;;;;;29.36;nan;99519.16;4942540;29;19950;-79
2022/06/13 11:28:25;;;;;;;;;;;;;;;29.37;nan;99509.94;4942386;29;20447;-79
2022/06/13 11:30:53;;;;;;;;;;;;;;;29.44;nan;99510.50;4937073;29;19926;-78
2022/06/13 11:33:23;;;;;;;;;;;;;;;29.48;nan;99511.59;4947162;28;19919;-78
2022/06/13 11:35:56;;;;;;;;;;;;;;;29.56;nan;99508.38;4942234;29;19919;-76
2022/06/13 11:38:28;;;;;;;;;;;;;;;29.65;nan;99503.19;4943951;29;19926;-78
2022/06/13 11:41:14;;;;;;;;;;;;;;;29.68;nan;99495.34;4945446;28;19925;-78
2022/06/13 11:43:42;;;;;;;;;;;;;;;29.77;nan;99492.06;4941952;29;19926;-79
2022/06/13 11:46:23;;;;;;;;;;;;;;;29.86;nan;99485.03;4947850;29;19940;-77
2022/06/13 11:48:49;;;;;;;;;;;;;;;29.95;nan;99488.88;4946914;28;19918;-77
2022/06/13 11:51:24;;;;;;;;;;;;;;;30.05;nan;99488.88;4946039;29;19933;-79
2022/06/13 11:53:50;;;;;;;;;;;;;;;30.20;nan;99475.28;4942285;29;19922;-75
2022/06/13 11:56:31;;;;;;;;;;;;;;;30.28;nan;99473.94;4941717;29;19919;-75
2022/06/13 11:59:00;;;;;;;;;;;;;;;30.26;nan;99463.31;4942442;29;19965;-78
2022/06/13 12:01:28;;;;;;;;;;;;;;;30.29;nan;99465.47;4943775;29;19922;-77
2022/06/13 12:03:57;;;;;;;;;;;;;;;30.34;nan;99459.19;4944624;28;19922;-77
2022/06/13 12:06:22;;;;;;;;;;;;;;;30.49;nan;99460.03;4945593;29;20390;-77
2022/06/13 12:08:49;;;;;;;;;;;;;;;30.49;nan;99453.78;4942305;29;19973;-77
2022/06/13 12:11:15;;;;;;;;;;;;;;;30.68;nan;99451.28;4941092;28;19922;-78
2022/06/13 12:13:44;;;;;;;;;;;;;;;30.76;nan;99447.97;4943704;29;19918;-77
2022/06/13 12:16:34;;;;;;;;;;;;;;;30.96;nan;99445.19;4939572;29;19949;-78
2022/06/13 12:19:05;;;;;;;;;;;;;;;31.23;nan;99445.63;4937686;29;19919;-77
2022/06/13 12:21:37;;;;;;;;;;;;;;;31.39;nan;99438.19;4942245;29;19918;-76
2022/06/13 12:24:09;;;;;;;;;;;;;;;31.47;nan;99434.03;4943898;29;20271;-77
2022/06/13 12:26:36;;;;;;;;;;;;;;;31.49;nan;99432.69;4940548;28;19973;-79
2022/06/13 12:29:08;;;;;;;;;;;;;;;31.64;nan;99426.31;4942593;29;20021;-77
2022/06/13 12:31:52;;;;;;;;;;;;;;;31.85;nan;99424.28;4941242;28;19961;-78
2022/06/13 12:34:24;;;;;;;;;;;;;;;32.15;nan;99434.16;4941764;29;19925;-77
2022/06/13 12:37:01;;;;;;;;;;;;;;;32.45;nan;99428.38;4943355;28;19950;-76
2022/06/13 12:39:36;;;;;;;;;;;;;;;32.73;nan;99424.81;4940924;29;20402;-77
2022/06/13 12:42:07;;;;;;;;;;;;;;;32.86;nan;99418.66;4942430;29;20005;-78
2022/06/13 12:45:03;;;;;;;;;;;;;;;33.05;nan;99421.41;4944297;29;19918;-80
2022/06/13 12:47:44;;;;;;;;;;;;;;;33.45;nan;99411.88;4943214;29;20065;-80
2022/06/13 12:50:12;;;;;;;;;;;;;;;33.98;nan;99411.59;4943234;28;20793;-80
2022/06/13 12:52:40;;;;;;;;;;;;;;;34.43;nan;99410.00;4940115;29;19918;-80
2022/06/13 12:55:09;;;;;;;;;;;;;;;34.77;nan;99398.66;4939571;29;19919;-80
2022/06/13 12:57:34;;;;;;;;;;;;;;;35.14;nan;99403.91;4940971;29;20371;-81
2022/06/13 13:00:15;;;;;;;;;;;;;;;35.47;nan;99392.75;4943259;29;19918;-81
2022/06/13 13:02:55;;;;;;;;;;;;;;;35.71;nan;99388.63;4941031;29;19918;-81
2022/06/13 13:05:40;;;;;;;;;;;;;;;35.29;nan;99380.81;4956272;28;20348;-80
2022/06/13 13:08:14;;;;;;;;;;;;;;;35.39;nan;99385.28;4940656;29;19953;-80
2022/06/13 13:10:53;;;;;;;;;;;;;;;35.93;nan;99387.81;4943668;28;19927;-80
2022/06/13 13:13:21;;;;;;;;;;;;;;;36.46;nan;99384.22;4901918;29;1178900;-80
2022/06/13 13:15:46;;;;;;;;;;;;;;;36.70;nan;99381.88;4944889;28;19918;-81
2022/06/13 13:18:23;;;;;;;;;;;;;;;36.68;nan;99373.16;4943629;28;20016;-81
2022/06/13 13:20:55;;;;;;;;;;;;;;;36.80;nan;99370.63;4940869;29;19919;-81
2022/06/13 13:23:30;;;;;;;;;;;;;;;37.24;nan;99374.25;4942623;28;19919;-79
2022/06/13 13:25:59;;;;;;;;;;;;;;;37.45;nan;99368.91;4943328;29;19925;-81
2022/06/13 13:28:31;;;;;;;;;;;;;;;37.34;nan;99368.44;4956700;28;19918;-81
2022/06/13 13:31:01;;;;;;;;;;;;;;;37.56;nan;99364.72;4943610;29;19918;-81
2022/06/13 13:33:45;;;;;;;;;;;;;;;37.91;nan;99359.97;4941787;28;19918;-80
2022/06/13 13:36:21;;;;;;;;;;;;;;;38.26;nan;99356.00;4940469;29;19995;-80
2022/06/13 13:38:49;;;;;;;;;;;;;;;38.36;nan;99350.09;4943186;28;19973;-81
2022/06/13 13:41:27;;;;;;;;;;;;;;;38.73;nan;99348.50;4941445;29;19965;-81
2022/06/13 13:43:55;;;;;;;;;;;;;;;39.28;nan;99342.78;4942363;28;19977;-81
2022/06/13 13:46:20;;;;;;;;;;;;;;;39.11;nan;99342.91;4942050;29;19926;-81